Time;durP1;ratioP1;P1;durP2;ratioP2;P2;SDS_P1;SDS_P2;PMS_P1;PMS_P2;Temp;Humidity;BMP_temperature;BMP_pressure;BME280_temperature;BME280_humidity;BME280_pressure;Samples;Min_cycle;Max_cycle;Signal;HPM_P1;HPM_P2
2023/03/10 04:58:04;;;;;;;12.23;6.72;;;;;;;5.43;100.00;98944.41;5425661;28;20481;-85
2023/03/10 05:01:16;;;;;;;11.38;5.85;;;;;;;5.41;100.00;98950.91;5273756;33;33687;-85
2023/03/10 05:04:19;;;;;;;10.30;6.60;;;;;;;5.63;100.00;98944.72;5274841;33;35068;-85
2023/03/10 05:07:24;;;;;;;14.20;7.03;;;;;;;5.72;100.00;98945.47;5272581;33;34158;-85
2023/03/10 05:10:26;;;;;;;11.98;7.35;;;;;;;5.96;100.00;98944.41;5259904;33;35485;-85
2023/03/10 05:13:29;;;;;;;10.75;6.78;;;;;;;6.03;100.00;98948.03;5273376;33;34601;-85
2023/03/10 05:16:33;;;;;;;11.25;6.90;;;;;;;6.01;100.00;98944.69;5260051;33;33901;-85
2023/03/10 05:19:37;;;;;;;11.23;7.00;;;;;;;5.89;100.00;98928.28;5269554;33;34895;-89
2023/03/10 05:22:40;;;;;;;13.60;7.50;;;;;;;5.87;100.00;98930.28;5260562;33;34642;-90
2023/03/10 05:25:44;;;;;;;15.13;8.02;;;;;;;5.97;100.00;98923.88;5273094;33;34070;-90
2023/03/10 05:28:47;;;;;;;11.57;6.93;;;;;;;5.98;100.00;98918.37;5260613;33;34087;-86
2023/03/10 05:31:51;;;;;;;12.45;7.78;;;;;;;6.03;100.00;98917.81;5273753;33;33485;-85
2023/03/10 05:34:55;;;;;;;12.37;6.97;;;;;;;5.96;100.00;98909.69;5261521;33;34693;-86
2023/03/10 05:37:58;;;;;;;13.80;7.40;;;;;;;5.96;100.00;98907.03;5237089;33;34775;-85
2023/03/10 05:41:05;;;;;;;14.57;7.20;;;;;;;5.93;100.00;98906.53;5272694;33;34611;-85
2023/03/10 05:44:09;;;;;;;12.70;7.65;;;;;;;5.93;100.00;98901.19;5268901;33;34732;-85
2023/03/10 05:47:13;;;;;;;13.10;8.18;;;;;;;5.96;100.00;98898.19;5260394;33;34496;-85
2023/03/10 05:50:16;;;;;;;15.25;8.30;;;;;;;6.03;100.00;98907.12;5252029;33;33966;-86
2023/03/10 05:53:19;;;;;;;16.95;7.30;;;;;;;6.13;100.00;98907.66;5271396;33;33886;-86
2023/03/10 05:56:22;;;;;;;12.05;7.95;;;;;;;6.18;100.00;98902.59;5271008;33;34096;-85
2023/03/10 05:59:25;;;;;;;13.07;8.32;;;;;;;6.30;100.00;98903.78;5261962;33;33884;-86
2023/03/10 06:02:28;;;;;;;14.80;8.07;;;;;;;6.44;100.00;98903.97;5275184;33;34269;-85
2023/03/10 06:05:31;;;;;;;13.98;7.93;;;;;;;6.62;100.00;98890.16;5267864;33;33969;-85
2023/03/10 06:08:35;;;;;;;16.70;7.80;;;;;;;6.74;100.00;98891.31;5241738;33;32090;-86
2023/03/10 06:11:38;;;;;;;16.27;7.50;;;;;;;6.92;100.00;98886.34;5283846;33;33789;-86
2023/03/10 06:14:41;;;;;;;13.07;7.97;;;;;;;7.18;100.00;98884.97;5297559;33;35399;-86
2023/03/10 06:17:43;;;;;;;13.23;7.50;;;;;;;7.47;100.00;98882.09;5280909;33;34894;-86
2023/03/10 06:20:47;;;;;;;13.88;7.68;;;;;;;7.64;100.00;98881.81;5283923;33;33899;-86
2023/03/10 06:23:51;;;;;;;14.02;7.57;;;;;;;7.76;100.00;98888.28;5274994;33;34127;-85
2023/03/10 06:26:53;;;;;;;9.32;7.10;;;;;;;7.93;100.00;98894.16;5255254;33;34061;-86
2023/03/10 06:29:57;;;;;;;17.83;7.97;;;;;;;7.91;100.00;98890.84;5266690;33;33640;-86
2023/03/10 06:33:00;;;;;;;14.73;7.53;;;;;;;8.05;100.00;98879.19;5265025;33;33640;-86
2023/03/10 06:36:04;;;;;;;12.63;7.28;;;;;;;8.16;100.00;98875.94;5265566;33;33744;-85
2023/03/10 06:39:07;;;;;;;10.23;7.00;;;;;;;8.13;100.00;98870.97;5269866;33;34742;-86
2023/03/10 06:42:10;;;;;;;10.50;6.45;;;;;;;8.20;100.00;98878.22;5271535;33;33558;-85
2023/03/10 06:45:15;;;;;;;15.38;6.85;;;;;;;8.27;100.00;98890.59;5271905;33;34093;-85
2023/03/10 06:48:18;;;;;;;10.88;6.80;;;;;;;8.35;100.00;98878.91;5279379;33;33880;-86
2023/03/10 06:51:22;;;;;;;11.88;7.15;;;;;;;8.48;100.00;98875.44;5256353;33;34176;-86
2023/03/10 06:54:26;;;;;;;11.95;6.93;;;;;;;8.64;100.00;98880.47;5270503;33;34785;-86
2023/03/10 06:57:29;;;;;;;9.65;6.62;;;;;;;8.90;100.00;98873.53;5275105;33;35386;-86
2023/03/10 07:00:32;;;;;;;12.75;7.55;;;;;;;9.03;100.00;98873.53;5261707;33;33734;-85
2023/03/10 07:03:35;;;;;;;14.30;7.80;;;;;;;9.27;100.00;98870.25;5271110;33;34138;-85
2023/03/10 07:06:38;;;;;;;12.23;7.43;;;;;;;9.51;100.00;98865.28;5281193;33;33867;-85
2023/03/10 07:09:41;;;;;;;14.25;7.15;;;;;;;9.67;100.00;98877.44;5277155;33;33543;-85
2023/03/10 07:12:47;;;;;;;14.18;7.95;;;;;;;9.78;100.00;98876.81;5277026;33;35374;-86
2023/03/10 07:15:50;;;;;;;12.57;7.18;;;;;;;9.88;100.00;98866.44;5254372;33;35007;-85
2023/03/10 07:18:54;;;;;;;15.93;7.35;;;;;;;9.97;100.00;98861.66;5231295;33;33955;-85
2023/03/10 07:21:57;;;;;;;10.80;6.72;;;;;;;10.06;100.00;98860.41;5266399;33;33496;-85
2023/03/10 07:25:00;;;;;;;11.88;7.32;;;;;;;9.94;100.00;98870.16;5278493;33;34067;-85
2023/03/10 07:28:04;;;;;;;11.32;7.28;;;;;;;10.13;100.00;98863.91;5274810;33;33571;-85
2023/03/10 07:31:11;;;;;;;13.48;7.75;;;;;;;10.33;100.00;98861.16;5276660;33;34074;-89
2023/03/10 07:34:14;;;;;;;14.43;7.80;;;;;;;10.59;100.00;98856.72;5270756;33;33863;-90
2023/03/10 07:37:17;;;;;;;11.90;7.45;;;;;;;10.76;100.00;98848.94;5272634;33;34689;-89
2023/03/10 07:40:23;;;;;;;12.75;7.80;;;;;;;10.88;100.00;98850.72;5263451;33;34032;-86
2023/03/10 07:43:26;;;;;;;12.85;7.62;;;;;;;11.11;99.82;98852.84;5280102;33;34047;-86
2023/03/10 07:46:30;;;;;;;11.75;7.97;;;;;;;11.16;98.54;98854.06;5272453;33;34023;-86
2023/03/10 07:49:33;;;;;;;14.93;7.62;;;;;;;11.13;99.03;98856.13;5278592;33;35096;-86
2023/03/10 07:52:35;;;;;;;17.95;7.95;;;;;;;11.46;97.21;98863.09;5287754;33;34587;-86
2023/03/10 07:55:38;;;;;;;12.32;7.65;;;;;;;11.80;95.87;98852.84;5286664;33;34509;-86
2023/03/10 07:58:41;;;;;;;13.98;7.65;;;;;;;11.68;96.22;98851.94;5274058;33;34531;-86
2023/03/10 08:01:44;;;;;;;10.48;7.22;;;;;;;12.31;92.26;98837.34;5288223;33;33908;-86
2023/03/10 08:04:48;;;;;;;12.32;7.72;;;;;;;12.92;89.21;98847.09;5255986;33;34509;-85
2023/03/10 08:07:50;;;;;;;13.27;7.53;;;;;;;12.80;87.70;98827.34;5234104;33;34774;-85
2023/03/10 08:11:05;;;;;;;13.68;7.45;;;;;;;12.46;90.86;98822.44;5260561;33;35269;-85
2023/03/10 08:14:08;;;;;;;10.63;7.20;;;;;;;12.52;90.59;98823.41;5274265;33;34078;-85
2023/03/10 08:17:11;;;;;;;12.80;7.80;;;;;;;12.66;88.59;98821.31;5248820;33;33856;-85
2023/03/10 08:20:13;;;;;;;15.43;7.82;;;;;;;12.55;89.92;98820.22;5260972;33;34015;-85
2023/03/10 08:23:16;;;;;;;15.57;7.90;;;;;;;12.71;89.56;98813.34;5277609;33;33661;-85
2023/03/10 08:26:19;;;;;;;11.52;7.12;;;;;;;12.90;87.85;98806.03;5264943;33;34361;-85
2023/03/10 08:29:22;;;;;;;12.80;7.62;;;;;;;12.69;89.49;98800.09;5268159;33;33588;-85
2023/03/10 08:32:25;;;;;;;11.68;7.40;;;;;;;12.87;87.92;98799.19;5275357;33;33881;-85
2023/03/10 08:35:28;;;;;;;12.00;6.85;;;;;;;13.13;87.01;98799.81;5264048;33;33896;-87
2023/03/10 08:38:31;;;;;;;11.23;7.18;;;;;;;13.09;87.51;98796.75;5246286;33;33972;-87
2023/03/10 08:41:38;;;;;;;12.52;7.20;;;;;;;13.35;86.47;98782.00;5245804;33;35049;-87
2023/03/10 08:44:41;;;;;;;15.68;7.55;;;;;;;13.64;85.03;98797.53;5289769;33;33920;-87
2023/03/10 08:47:44;;;;;;;17.95;8.20;;;;;;;13.59;83.86;98788.22;5286056;33;33555;-86
2023/03/10 08:50:47;;;;;;;15.35;7.47;;;;;;;14.09;82.43;98773.31;5277619;33;34479;-88
2023/03/10 08:53:50;;;;;;;12.07;7.37;;;;;;;14.32;80.43;98775.09;5283104;33;35036;-87
2023/03/10 08:56:53;;;;;;;10.60;6.62;;;;;;;13.80;82.60;98759.72;5269816;33;34159;-87
2023/03/10 08:59:56;;;;;;;12.73;6.82;;;;;;;13.72;83.61;98762.81;5290222;33;35286;-87
2023/03/10 09:02:59;;;;;;;14.55;7.03;;;;;;;13.78;82.37;98756.47;5294107;33;35490;-87
2023/03/10 09:06:02;;;;;;;11.23;7.25;;;;;;;13.91;82.95;98755.34;5272900;33;33885;-87
2023/03/10 09:09:07;;;;;;;10.20;6.75;;;;;;;14.32;80.09;98748.03;5291176;33;35196;-88
2023/03/10 09:12:11;;;;;;;11.40;7.05;;;;;;;14.35;80.06;98752.16;5291177;33;34031;-87
2023/03/10 09:15:13;;;;;;;10.95;7.05;;;;;;;14.24;81.65;98737.59;5291541;33;33991;-87
2023/03/10 09:18:16;;;;;;;11.48;7.12;;;;;;;14.87;78.84;98746.59;5274709;33;33972;-87
2023/03/10 09:21:19;;;;;;;12.25;7.35;;;;;;;15.12;76.28;98736.19;5277931;33;33991;-88
2023/03/10 09:24:23;;;;;;;13.80;7.10;;;;;;;14.99;77.37;98735.69;5278685;33;34308;-88
2023/03/10 09:27:26;;;;;;;13.25;6.95;;;;;;;15.12;76.45;98738.88;5281484;33;33709;-87
2023/03/10 09:30:29;;;;;;;12.10;6.95;;;;;;;15.34;76.16;98728.06;5265956;33;33728;-87
2023/03/10 09:33:32;;;;;;;15.50;7.95;;;;;;;15.36;76.67;98731.38;5262683;33;35390;-87
2023/03/10 09:36:35;;;;;;;12.75;6.40;;;;;;;15.18;77.36;98728.91;5281995;33;33760;-86
2023/03/10 09:39:38;;;;;;;8.82;5.30;;;;;;;15.14;78.63;98722.34;5254465;33;34418;-88
2023/03/10 09:42:58;;;;;;;9.68;5.12;;;;;;;15.15;80.03;98705.84;5272765;33;34095;-90
2023/03/10 09:46:19;;;;;;;9.10;5.45;;;;;;;15.27;78.57;98713.03;5286099;33;34866;-86
2023/03/10 09:49:37;;;;;;;13.38;5.25;;;;;;;15.22;79.02;98700.25;5279599;33;34880;-87
2023/03/10 09:52:45;;;;;;;10.27;4.80;;;;;;;15.30;78.78;98702.53;5282231;33;35059;-86
2023/03/10 09:55:48;;;;;;;7.22;4.25;;;;;;;15.43;78.77;98693.22;5272300;33;33951;-87
2023/03/10 09:58:58;;;;;;;7.60;4.30;;;;;;;15.58;78.32;98687.16;5272424;33;36006;-86
2023/03/10 10:02:14;;;;;;;8.68;5.10;;;;;;;15.86;76.38;98683.47;5267917;33;35011;-86
2023/03/10 10:05:26;;;;;;;7.25;4.18;;;;;;;15.93;76.79;98675.13;5261772;33;35176;-86
2023/03/10 10:08:47;;;;;;;8.65;4.20;;;;;;;15.97;77.42;98681.69;5257467;33;35175;-86
2023/03/10 10:12:22;;;;;;;10.35;4.60;;;;;;;15.89;77.93;98679.44;5247587;33;33927;-86
2023/03/10 10:15:27;;;;;;;11.30;4.80;;;;;;;16.25;76.96;98670.59;5268823;33;33989;-85
2023/03/10 10:18:44;;;;;;;7.43;4.30;;;;;;;16.58;75.85;98655.12;5258071;33;34033;-90
2023/03/10 10:21:54;;;;;;;11.18;4.55;;;;;;;16.41;76.07;98644.41;5262848;33;33965;-86
2023/03/10 10:25:11;;;;;;;6.03;4.12;;;;;;;16.12;77.67;98640.31;5271530;33;34307;-86
2023/03/10 10:28:40;;;;;;;8.82;4.30;;;;;;;15.93;76.66;98620.84;5262321;33;33914;-86
2023/03/10 10:32:04;;;;;;;8.48;4.15;;;;;;;16.08;77.05;98627.25;5255858;33;33804;-86
2023/03/10 10:35:14;;;;;;;9.65;3.83;;;;;;;16.29;74.95;98613.84;5250600;33;33946;-86
2023/03/10 10:38:26;;;;;;;6.40;3.80;;;;;;;16.21;76.17;98600.78;5271398;33;34802;-86
2023/03/10 10:41:30;;;;;;;9.18;3.53;;;;;;;16.36;72.59;98600.91;5263664;33;35570;-85
2023/03/10 10:44:40;;;;;;;6.30;3.80;;;;;;;16.29;72.78;98603.00;5265354;33;33941;-86
2023/03/10 10:47:48;;;;;;;;;;;;;;;16.35;73.55;98607.41;5256192;33;33789;-86
2023/03/10 10:50:54;;;;;;;7.40;3.53;;;;;;;16.61;71.67;98605.69;5254156;33;35268;-86
2023/03/10 10:53:59;;;;;;;7.32;3.87;;;;;;;16.68;72.28;98600.06;5243151;33;33905;-86
2023/03/10 10:57:02;;;;;;;6.47;4.03;;;;;;;16.74;70.73;98602.53;5271027;33;34551;-86
2023/03/10 11:00:24;;;;;;;8.43;4.07;;;;;;;16.85;70.65;98589.88;5258226;33;34220;-86
2023/03/10 11:03:31;;;;;;;6.82;4.10;;;;;;;17.54;69.44;98586.09;5284193;33;34425;-90
2023/03/10 11:06:36;;;;;;;10.05;4.20;;;;;;;17.95;66.04;98578.06;5257301;33;32638;-86
2023/03/10 11:09:40;;;;;;;5.47;3.90;;;;;;;17.87;66.46;98576.69;5237666;33;32857;-86
2023/03/10 11:12:49;;;;;;;5.93;3.65;;;;;;;17.48;67.80;98559.13;5250622;33;35149;-86
2023/03/10 11:16:14;;;;;;;6.20;3.60;;;;;;;17.43;69.09;98555.34;5254183;33;33777;-86
2023/03/10 11:19:23;;;;;;;6.82;4.05;;;;;;;18.10;67.40;98544.56;5267429;33;34824;-86
2023/03/10 11:22:44;;;;;;;5.35;3.62;;;;;;;18.65;64.84;98542.88;5284318;33;33701;-86
2023/03/10 11:26:14;;;;;;;7.78;3.37;;;;;;;17.80;66.66;98537.19;5280682;33;34671;-86
2023/03/10 11:29:22;;;;;;;6.40;3.42;;;;;;;17.71;67.46;98528.72;5262563;33;35390;-87
2023/03/10 11:32:31;;;;;;;5.65;3.40;;;;;;;17.52;68.16;98517.53;5271739;33;33907;-86
2023/03/10 11:35:48;;;;;;;3.62;3.00;;;;;;;17.74;67.14;98519.19;5260395;33;33936;-86
2023/03/10 11:38:57;;;;;;;7.15;3.25;;;;;;;18.50;65.97;98504.78;5256331;33;33763;-86
2023/03/10 11:42:20;;;;;;;7.45;3.47;;;;;;;19.44;61.61;98505.78;5262864;33;34544;-86
2023/03/10 11:45:26;;;;;;;5.37;3.10;;;;;;;20.11;59.94;98488.97;5288078;33;35382;-91
2023/03/10 11:48:52;;;;;;;7.75;2.83;;;;;;;20.79;56.69;98477.91;5263901;33;35388;-87
2023/03/10 11:52:00;;;;;;;4.68;2.70;;;;;;;21.08;56.16;98470.72;5273170;33;34843;-87
2023/03/10 11:55:13;;;;;;;5.05;3.12;;;;;;;21.31;54.19;98458.91;5257251;33;34231;-86
2023/03/10 11:58:38;;;;;;;5.93;2.90;;;;;;;22.17;50.74;98448.56;5255944;33;34212;-86
2023/03/10 12:01:48;;;;;;;4.85;2.92;;;;;;;23.08;46.70;98438.87;5256634;33;33680;-86
2023/03/10 12:05:07;;;;;;;7.55;2.83;;;;;;;23.37;45.26;98446.75;5255747;33;35104;-87
2023/03/10 12:08:11;;;;;;;3.62;2.87;;;;;;;23.41;44.40;98431.25;5256329;33;33553;-87
2023/03/10 12:11:20;;;;;;;5.40;3.05;;;;;;;23.95;43.01;98434.09;5243330;33;33483;-87
2023/03/10 12:14:24;;;;;;;3.67;2.60;;;;;;;24.52;42.11;98423.28;5256409;33;34848;-87
2023/03/10 12:17:28;;;;;;;10.15;3.08;;;;;;;25.16;39.79;98427.53;5258616;33;35043;-87
2023/03/10 12:20:32;;;;;;;6.53;2.90;;;;;;;25.04;40.42;98415.19;5258155;33;34584;-87
2023/03/10 12:23:41;;;;;;;4.97;2.33;;;;;;;26.06;38.48;98396.53;5255377;33;33990;-87
2023/03/10 12:26:44;;;;;;;3.10;2.37;;;;;;;25.69;37.66;98401.63;5256302;33;34003;-87
2023/03/10 12:29:47;;;;;;;6.60;2.00;;;;;;;24.69;39.61;98391.44;5255577;33;34417;-87
2023/03/10 12:32:50;;;;;;;2.97;1.70;;;;;;;25.75;37.67;98383.78;5243824;33;34815;-87
2023/03/10 12:36:01;;;;;;;3.05;2.03;;;;;;;26.23;36.69;98375.22;5232466;33;34913;-87
2023/03/10 12:39:26;;;;;;;8.27;2.08;;;;;;;26.99;35.42;98381.81;5264843;33;34143;-91
2023/03/10 12:42:31;;;;;;;4.93;1.95;;;;;;;24.80;38.31;98366.03;5279771;33;34849;-87
2023/03/10 12:45:42;;;;;;;5.78;2.35;;;;;;;23.79;40.34;98365.00;5291976;33;34043;-87
2023/03/10 12:48:52;;;;;;;4.07;2.20;;;;;;;23.67;40.99;98356.47;5292547;33;34546;-87
2023/03/10 12:52:06;;;;;;;4.05;1.73;;;;;;;24.30;40.41;98335.31;5285910;33;34084;-87
2023/03/10 12:55:23;;;;;;;4.57;1.87;;;;;;;26.07;36.21;98340.25;5255800;33;33937;-87
2023/03/10 12:58:26;;;;;;;4.35;2.20;;;;;;;25.76;36.94;98342.06;5255318;33;34015;-87
2023/03/10 13:01:41;;;;;;;3.28;1.98;;;;;;;26.04;35.95;98333.44;5255939;33;33710;-87
2023/03/10 13:05:03;;;;;;;2.55;1.48;;;;;;;26.65;35.57;98319.38;5255933;33;33911;-87
2023/03/10 13:08:23;;;;;;;5.70;2.30;;;;;;;27.30;34.11;98320.69;5255382;33;34532;-87
2023/03/10 13:11:38;;;;;;;8.30;1.45;;;;;;;27.57;34.33;98319.28;5255183;33;34822;-87
2023/03/10 13:14:42;;;;;;;4.43;1.60;;;;;;;28.99;31.19;98310.50;5242946;33;34851;-87
2023/03/10 13:17:45;;;;;;;4.12;1.92;;;;;;;28.32;32.06;98309.19;5275972;33;33591;-88
2023/03/10 13:20:48;;;;;;;4.57;2.10;;;;;;;27.97;32.94;98309.63;5254535;33;34087;-87
2023/03/10 13:23:51;;;;;;;8.00;1.77;;;;;;;26.04;36.39;98305.06;5290092;33;33566;-91
2023/03/10 13:27:22;;;;;;;4.12;1.60;;;;;;;24.70;39.17;98294.81;5290742;33;34172;-90
2023/03/10 13:30:26;;;;;;;3.87;1.70;;;;;;;22.01;45.95;98296.47;5248744;33;34275;-86
2023/03/10 13:33:29;;;;;;;2.85;1.50;;;;;;;22.21;45.80;98289.81;5254531;33;34449;-86
2023/03/10 13:36:40;;;;;;;4.10;1.85;;;;;;;23.63;43.12;98295.03;5262793;33;34349;-86
2023/03/10 13:39:43;;;;;;;4.05;1.65;;;;;;;24.43;40.29;98296.72;5265399;33;34171;-86
2023/03/10 13:42:46;;;;;;;5.47;1.87;;;;;;;23.04;42.87;98284.16;5275257;33;34961;-86
2023/03/10 13:45:55;;;;;;;3.75;1.70;;;;;;;21.32;46.99;98279.88;5265751;33;33980;-86
2023/03/10 13:49:05;;;;;;;;;;;;;;;19.48;52.92;98265.91;5287435;33;33868;-86
2023/03/10 13:52:13;;;;;;;3.78;2.22;;;;;;;18.99;54.78;98273.13;5288844;33;34227;-86
2023/03/10 13:55:16;;;;;;;5.80;2.12;;;;;;;18.48;57.12;98269.88;5271921;33;34403;-86
2023/03/10 13:58:19;;;;;;;5.55;1.80;;;;;;;18.42;56.91;98271.00;5258618;33;33832;-86
2023/03/10 14:01:25;;;;;;;2.55;2.05;;;;;;;18.10;58.06;98264.06;5247708;33;34347;-86
2023/03/10 14:04:47;;;;;;;4.82;2.28;;;;;;;17.60;61.45;98266.66;5272067;33;33966;-86
2023/03/10 14:08:00;;;;;;;8.65;2.40;;;;;;;17.72;61.48;98258.19;5271986;33;34087;-86
2023/03/10 14:11:21;;;;;;;5.20;2.20;;;;;;;17.69;62.17;98247.84;5271867;33;35077;-85
2023/03/10 14:14:30;;;;;;;1.50;1.40;;;;;;;17.42;60.93;98257.16;5271957;33;35251;-85
2023/03/10 14:17:37;;;;;;;2.27;2.07;;;;;;;17.30;61.92;98255.81;5272107;33;34823;-85
2023/03/10 14:20:45;;;;;;;9.45;2.20;;;;;;;17.40;62.29;98245.75;5259805;33;34112;-90
2023/03/10 14:23:48;;;;;;;5.83;2.13;;;;;;;17.32;62.68;98250.94;5272132;33;34502;-90
2023/03/10 14:26:51;;;;;;;3.50;1.80;;;;;;;16.93;63.90;98256.91;5247558;33;33582;-86
2023/03/10 14:29:56;;;;;;;4.93;2.20;;;;;;;17.00;63.16;98244.69;5264178;33;33695;-86
2023/03/10 14:33:00;;;;;;;3.70;2.10;;;;;;;16.63;65.73;98247.63;5286159;33;33992;-86
2023/03/10 14:36:09;;;;;;;3.35;1.75;;;;;;;16.46;66.28;98250.56;5274108;33;35250;-85
2023/03/10 14:39:12;;;;;;;4.90;2.00;;;;;;;16.36;67.06;98250.56;5248241;33;35160;-86
2023/03/10 14:42:24;;;;;;;3.70;2.20;;;;;;;16.10;68.28;98247.75;5271892;33;34077;-85
2023/03/10 14:45:33;;;;;;;5.72;2.35;;;;;;;16.20;67.67;98244.25;5271673;33;35328;-85
2023/03/10 14:48:38;;;;;;;;;;;;;;;16.27;67.38;98244.84;5271828;33;34804;-85
2023/03/10 14:51:44;;;;;;;3.62;1.80;;;;;;;16.28;68.22;98232.06;5259262;33;34955;-86
2023/03/10 14:54:47;;;;;;;2.92;1.80;;;;;;;16.15;67.66;98236.12;5247809;33;34997;-85
2023/03/10 14:57:57;;;;;;;9.05;2.10;;;;;;;15.97;69.64;98225.72;5259296;33;34004;-85
2023/03/10 15:01:00;;;;;;;10.50;2.40;;;;;;;15.77;71.30;98221.03;5279608;33;130836;-85
2023/03/10 15:04:03;;;;;;;3.08;1.98;;;;;;;15.61;71.87;98215.50;5276299;33;34933;-86
2023/03/10 15:07:08;;;;;;;3.50;2.33;;;;;;;15.45;73.73;98208.38;5279833;33;35154;-85
2023/03/10 15:10:12;;;;;;;2.50;2.08;;;;;;;15.38;73.91;98205.06;5271950;33;33997;-85
2023/03/10 15:13:21;;;;;;;4.07;2.60;;;;;;;15.34;74.35;98217.53;5247648;33;34676;-85
2023/03/10 15:16:24;;;;;;;4.37;2.70;;;;;;;15.23;75.75;98199.56;5271817;33;34814;-85
2023/03/10 15:19:27;;;;;;;4.57;2.30;;;;;;;15.29;75.64;98193.09;5258725;33;33970;-85
2023/03/10 15:22:31;;;;;;;2.90;2.55;;;;;;;15.28;76.04;98191.47;5247881;33;33922;-85
2023/03/10 15:25:35;;;;;;;3.40;2.80;;;;;;;15.14;77.17;98191.91;5256441;33;35419;-85
2023/03/10 15:28:38;;;;;;;4.93;3.00;;;;;;;15.03;80.17;98198.34;5241545;33;33876;-85
2023/03/10 15:31:42;;;;;;;7.82;3.45;;;;;;;14.98;81.07;98190.19;5247467;33;32583;-85
2023/03/10 15:34:44;;;;;;;4.72;3.22;;;;;;;14.99;81.71;98189.09;5254503;33;34754;-85
2023/03/10 15:37:49;;;;;;;7.90;3.28;;;;;;;14.89;82.97;98191.75;5252668;33;34759;-85
2023/03/10 15:40:52;;;;;;;6.43;3.15;;;;;;;14.79;84.70;98194.37;5270220;33;35549;-85
2023/03/10 15:43:55;;;;;;;5.53;3.20;;;;;;;14.70;85.87;98196.72;5263815;33;35258;-85
2023/03/10 15:46:58;;;;;;;5.80;2.90;;;;;;;14.63;86.68;98199.66;5241620;33;34615;-85
2023/03/10 15:50:01;;;;;;;4.78;3.15;;;;;;;14.57;88.59;98187.16;5230548;33;34876;-85
2023/03/10 15:53:03;;;;;;;7.22;3.30;;;;;;;14.59;87.51;98197.72;5230916;33;33832;-85
2023/03/10 15:56:08;;;;;;;4.25;3.25;;;;;;;14.52;89.05;98206.88;5240699;33;33646;-85
2023/03/10 15:59:11;;;;;;;7.45;3.60;;;;;;;14.44;89.63;98204.59;5253720;33;33958;-86
2023/03/10 16:02:14;;;;;;;7.18;3.95;;;;;;;14.29;90.86;98190.91;5253493;33;34840;-85
2023/03/10 16:05:18;;;;;;;4.25;3.37;;;;;;;14.29;90.38;98183.59;5253896;33;34272;-90
2023/03/10 16:08:21;;;;;;;5.82;3.67;;;;;;;14.23;91.16;98191.94;5241140;33;35021;-90
2023/03/10 16:11:25;;;;;;;7.35;3.40;;;;;;;14.28;89.93;98173.88;5229240;33;34534;-90
2023/03/10 16:14:29;;;;;;;5.82;3.75;;;;;;;14.16;91.65;98186.75;5241025;33;35177;-87
2023/03/10 16:17:32;;;;;;;5.95;3.90;;;;;;;14.04;92.14;98186.87;5231815;33;33858;-86
2023/03/10 16:20:35;;;;;;;5.97;3.65;;;;;;;14.03;92.63;98181.72;5243287;33;34010;-86
2023/03/10 16:23:38;;;;;;;4.50;3.58;;;;;;;14.03;92.73;98184.41;5231428;33;33930;-86
2023/03/10 16:26:41;;;;;;;7.75;3.53;;;;;;;13.97;93.84;98190.84;5255526;33;34308;-86
2023/03/10 16:29:47;;;;;;;4.90;3.47;;;;;;;13.95;93.97;98195.69;5243455;33;35368;-85
2023/03/10 16:32:50;;;;;;;5.40;3.75;;;;;;;13.93;94.69;98195.97;5242963;33;34612;-86
2023/03/10 16:35:53;;;;;;;6.93;3.47;;;;;;;13.87;95.30;98190.75;5231612;33;35001;-86
2023/03/10 16:38:56;;;;;;;7.00;3.75;;;;;;;13.78;96.72;98201.19;5231492;33;34105;-86
2023/03/10 16:41:59;;;;;;;6.45;3.50;;;;;;;13.69;97.03;98208.94;5258761;33;33745;-86
2023/03/10 16:45:03;;;;;;;6.05;3.62;;;;;;;13.69;98.37;98214.34;5243719;33;33670;-86
2023/03/10 16:48:06;;;;;;;4.85;3.53;;;;;;;13.63;99.20;98223.44;5255888;33;34003;-85
2023/03/10 16:51:21;;;;;;;5.10;4.00;;;;;;;13.58;99.82;98220.66;5259099;33;34813;-86
2023/03/10 16:54:24;;;;;;;7.07;3.50;;;;;;;13.53;100.00;98224.13;5255479;33;33754;-86
